sensor_id;sensor_type;location;lat;lon;timestamp;temperature;humidity
610;DHT22;292;48.800;9.216;2023-04-02T00:02:31;11.10;70.90
610;DHT22;292;48.800;9.216;2023-04-02T00:05:24;11.10;71.10
610;DHT22;292;48.800;9.216;2023-04-02T00:07:56;11.00;71.20
610;DHT22;292;48.800;9.216;2023-04-02T00:10:26;11.00;71.20
610;DHT22;292;48.800;9.216;2023-04-02T00:13:16;11.00;71.20
610;DHT22;292;48.800;9.216;2023-04-02T00:15:46;11.00;71.20
610;DHT22;292;48.800;9.216;2023-04-02T00:18:15;11.00;71.20
610;DHT22;292;48.800;9.216;2023-04-02T00:20:45;10.90;71.30
610;DHT22;292;48.800;9.216;2023-04-02T00:23:14;10.90;71.50
610;DHT22;292;48.800;9.216;2023-04-02T00:25:42;10.90;71.80
610;DHT22;292;48.800;9.216;2023-04-02T00:28:14;10.90;71.50
610;DHT22;292;48.800;9.216;2023-04-02T00:30:46;10.90;71.80
610;DHT22;292;48.800;9.216;2023-04-02T00:33:17;10.90;71.80
610;DHT22;292;48.800;9.216;2023-04-02T00:35:45;10.90;71.80
610;DHT22;292;48.800;9.216;2023-04-02T00:38:18;11.00;71.50
610;DHT22;292;48.800;9.216;2023-04-02T00:40:46;10.90;71.50
610;DHT22;292;48.800;9.216;2023-04-02T00:43:17;10.90;71.50
610;DHT22;292;48.800;9.216;2023-04-02T00:45:46;10.90;71.50
610;DHT22;292;48.800;9.216;2023-04-02T00:48:33;10.90;71.80
610;DHT22;292;48.800;9.216;2023-04-02T00:51:10;10.90;71.90
610;DHT22;292;48.800;9.216;2023-04-02T00:53:38;10.90;71.90
610;DHT22;292;48.800;9.216;2023-04-02T00:56:14;10.80;72.10
610;DHT22;292;48.800;9.216;2023-04-02T00:58:44;10.80;72.20
610;DHT22;292;48.800;9.216;2023-04-02T01:01:17;10.80;72.20
610;DHT22;292;48.800;9.216;2023-04-02T01:03:52;10.80;72.20
610;DHT22;292;48.800;9.216;2023-04-02T01:06:25;10.80;72.40
610;DHT22;292;48.800;9.216;2023-04-02T01:09:11;10.70;72.20
610;DHT22;292;48.800;9.216;2023-04-02T01:12:07;10.80;72.50
610;DHT22;292;48.800;9.216;2023-04-02T01:14:44;10.80;72.60
610;DHT22;292;48.800;9.216;2023-04-02T01:17:28;10.80;72.50
610;DHT22;292;48.800;9.216;2023-04-02T01:20:21;10.70;72.50
610;DHT22;292;48.800;9.216;2023-04-02T01:22:52;10.80;72.60
610;DHT22;292;48.800;9.216;2023-04-02T01:25:27;10.80;72.50
610;DHT22;292;48.800;9.216;2023-04-02T01:27:59;10.80;72.60
610;DHT22;292;48.800;9.216;2023-04-02T01:30:39;10.90;72.60
610;DHT22;292;48.800;9.216;2023-04-02T01:33:11;10.90;72.60
610;DHT22;292;48.800;9.216;2023-04-02T01:35:41;10.90;72.60
610;DHT22;292;48.800;9.216;2023-04-02T01:38:13;10.90;72.50
610;DHT22;292;48.800;9.216;2023-04-02T01:40:46;11.00;72.60
610;DHT22;292;48.800;9.216;2023-04-02T01:43:19;11.10;72.40
610;DHT22;292;48.800;9.216;2023-04-02T01:45:51;11.10;72.20
610;DHT22;292;48.800;9.216;2023-04-02T01:48:21;11.10;72.20
610;DHT22;292;48.800;9.216;2023-04-02T01:50:50;11.20;72.10
610;DHT22;292;48.800;9.216;2023-04-02T01:53:21;11.20;71.80
610;DHT22;292;48.800;9.216;2023-04-02T01:55:50;11.20;71.60
610;DHT22;292;48.800;9.216;2023-04-02T01:58:20;11.30;71.50
610;DHT22;292;48.800;9.216;2023-04-02T02:00:54;11.20;71.20
610;DHT22;292;48.800;9.216;2023-04-02T02:03:21;11.20;71.20
610;DHT22;292;48.800;9.216;2023-04-02T02:05:49;11.30;70.90
610;DHT22;292;48.800;9.216;2023-04-02T02:08:30;11.30;70.80
610;DHT22;292;48.800;9.216;2023-04-02T02:10:59;11.30;70.80
610;DHT22;292;48.800;9.216;2023-04-02T02:13:26;11.30;70.80
610;DHT22;292;48.800;9.216;2023-04-02T02:15:58;11.30;70.60
610;DHT22;292;48.800;9.216;2023-04-02T02:18:26;11.30;70.60
610;DHT22;292;48.800;9.216;2023-04-02T02:20:56;11.30;70.60
610;DHT22;292;48.800;9.216;2023-04-02T02:23:24;11.30;70.60
610;DHT22;292;48.800;9.216;2023-04-02T02:25:54;11.30;70.50
610;DHT22;292;48.800;9.216;2023-04-02T02:28:24;11.30;70.50
610;DHT22;292;48.800;9.216;2023-04-02T02:30:54;11.40;70.30
610;DHT22;292;48.800;9.216;2023-04-02T02:33:25;11.40;70.30
610;DHT22;292;48.800;9.216;2023-04-02T02:35:57;11.30;70.20
610;DHT22;292;48.800;9.216;2023-04-02T02:38:46;11.30;70.30
610;DHT22;292;48.800;9.216;2023-04-02T02:41:18;11.30;70.30
610;DHT22;292;48.800;9.216;2023-04-02T02:43:55;11.20;70.30
610;DHT22;292;48.800;9.216;2023-04-02T02:46:24;11.30;70.50
610;DHT22;292;48.800;9.216;2023-04-02T02:48:56;11.30;70.30
610;DHT22;292;48.800;9.216;2023-04-02T02:51:27;11.30;70.30
610;DHT22;292;48.800;9.216;2023-04-02T02:53:59;11.30;70.00
610;DHT22;292;48.800;9.216;2023-04-02T02:56:30;11.30;70.20
610;DHT22;292;48.800;9.216;2023-04-02T02:59:00;11.30;70.20
610;DHT22;292;48.800;9.216;2023-04-02T03:01:28;11.30;70.30
610;DHT22;292;48.800;9.216;2023-04-02T03:03:58;11.20;70.30
610;DHT22;292;48.800;9.216;2023-04-02T03:06:26;11.20;70.60
610;DHT22;292;48.800;9.216;2023-04-02T03:09:01;11.20;70.60
610;DHT22;292;48.800;9.216;2023-04-02T03:11:33;11.20;70.80
610;DHT22;292;48.800;9.216;2023-04-02T03:14:09;11.30;70.60
610;DHT22;292;48.800;9.216;2023-04-02T03:16:44;11.30;70.60
610;DHT22;292;48.800;9.216;2023-04-02T03:19:23;11.20;70.60
610;DHT22;292;48.800;9.216;2023-04-02T03:21:55;11.30;70.60
610;DHT22;292;48.800;9.216;2023-04-02T03:24:32;11.30;70.80
610;DHT22;292;48.800;9.216;2023-04-02T03:27:04;11.30;70.80
610;DHT22;292;48.800;9.216;2023-04-02T03:29:34;11.30;70.60
610;DHT22;292;48.800;9.216;2023-04-02T03:32:06;11.30;70.80
610;DHT22;292;48.800;9.216;2023-04-02T03:34:41;11.30;70.80
610;DHT22;292;48.800;9.216;2023-04-02T03:37:14;11.30;70.90
610;DHT22;292;48.800;9.216;2023-04-02T03:39:45;11.30;70.80
610;DHT22;292;48.800;9.216;2023-04-02T03:42:16;11.30;70.90
610;DHT22;292;48.800;9.216;2023-04-02T03:44:46;11.20;71.10
610;DHT22;292;48.800;9.216;2023-04-02T03:47:19;11.30;71.10
610;DHT22;292;48.800;9.216;2023-04-02T03:49:55;11.30;71.20
610;DHT22;292;48.800;9.216;2023-04-02T03:52:25;11.30;71.10
610;DHT22;292;48.800;9.216;2023-04-02T03:54:53;11.40;71.20
610;DHT22;292;48.800;9.216;2023-04-02T03:57:24;11.40;71.20
610;DHT22;292;48.800;9.216;2023-04-02T03:59:57;11.40;71.10
610;DHT22;292;48.800;9.216;2023-04-02T04:02:34;11.40;71.10
610;DHT22;292;48.800;9.216;2023-04-02T04:05:18;11.40;71.30
610;DHT22;292;48.800;9.216;2023-04-02T04:07:50;11.40;71.30
610;DHT22;292;48.800;9.216;2023-04-02T04:10:21;11.30;71.30
610;DHT22;292;48.800;9.216;2023-04-02T04:12:51;11.30;71.50
610;DHT22;292;48.800;9.216;2023-04-02T04:15:21;11.30;71.50
610;DHT22;292;48.800;9.216;2023-04-02T04:17:53;11.40;71.50
610;DHT22;292;48.800;9.216;2023-04-02T04:20:30;11.40;71.50
610;DHT22;292;48.800;9.216;2023-04-02T04:23:14;11.30;71.60
610;DHT22;292;48.800;9.216;2023-04-02T04:25:42;11.30;71.60
610;DHT22;292;48.800;9.216;2023-04-02T04:28:18;11.30;71.80
610;DHT22;292;48.800;9.216;2023-04-02T04:30:51;11.30;71.80
610;DHT22;292;48.800;9.216;2023-04-02T04:33:26;11.20;71.80
610;DHT22;292;48.800;9.216;2023-04-02T04:36:02;11.10;72.10
610;DHT22;292;48.800;9.216;2023-04-02T04:38:31;11.20;72.20
610;DHT22;292;48.800;9.216;2023-04-02T04:41:03;11.10;72.20
610;DHT22;292;48.800;9.216;2023-04-02T04:43:37;11.10;72.40
610;DHT22;292;48.800;9.216;2023-04-02T04:46:10;11.10;72.50
610;DHT22;292;48.800;9.216;2023-04-02T04:48:47;11.20;72.50
610;DHT22;292;48.800;9.216;2023-04-02T04:51:21;11.20;72.50
610;DHT22;292;48.800;9.216;2023-04-02T04:53:52;11.20;72.50
610;DHT22;292;48.800;9.216;2023-04-02T04:56:22;11.20;72.40
610;DHT22;292;48.800;9.216;2023-04-02T04:58:54;11.20;72.50
610;DHT22;292;48.800;9.216;2023-04-02T05:01:26;11.20;72.50
610;DHT22;292;48.800;9.216;2023-04-02T05:04:00;11.20;72.50
610;DHT22;292;48.800;9.216;2023-04-02T05:06:38;11.20;72.60
610;DHT22;292;48.800;9.216;2023-04-02T05:09:12;11.30;72.60
610;DHT22;292;48.800;9.216;2023-04-02T05:11:43;11.30;72.60
610;DHT22;292;48.800;9.216;2023-04-02T05:14:18;11.30;72.60
610;DHT22;292;48.800;9.216;2023-04-02T05:16:52;11.40;72.50
610;DHT22;292;48.800;9.216;2023-04-02T05:19:26;11.30;72.50
610;DHT22;292;48.800;9.216;2023-04-02T05:21:59;11.40;72.60
610;DHT22;292;48.800;9.216;2023-04-02T05:24:42;11.40;72.40
610;DHT22;292;48.800;9.216;2023-04-02T05:27:20;11.40;72.50
610;DHT22;292;48.800;9.216;2023-04-02T05:29:52;11.40;72.50
610;DHT22;292;48.800;9.216;2023-04-02T05:32:25;11.40;72.20
610;DHT22;292;48.800;9.216;2023-04-02T05:34:55;11.40;72.40
610;DHT22;292;48.800;9.216;2023-04-02T05:37:27;11.40;72.40
610;DHT22;292;48.800;9.216;2023-04-02T05:39:57;11.40;72.40
610;DHT22;292;48.800;9.216;2023-04-02T05:42:27;11.40;72.20
610;DHT22;292;48.800;9.216;2023-04-02T05:45:02;11.40;72.20
610;DHT22;292;48.800;9.216;2023-04-02T05:47:32;11.50;72.20
610;DHT22;292;48.800;9.216;2023-04-02T05:50:22;11.50;72.10
610;DHT22;292;48.800;9.216;2023-04-02T05:52:57;11.50;72.10
610;DHT22;292;48.800;9.216;2023-04-02T05:55:33;11.50;72.10
610;DHT22;292;48.800;9.216;2023-04-02T05:58:05;11.50;72.10
610;DHT22;292;48.800;9.216;2023-04-02T06:01:01;11.50;71.90
610;DHT22;292;48.800;9.216;2023-04-02T06:03:36;11.50;71.90
610;DHT22;292;48.800;9.216;2023-04-02T06:06:13;11.50;71.60
610;DHT22;292;48.800;9.216;2023-04-02T06:08:48;11.50;71.90
610;DHT22;292;48.800;9.216;2023-04-02T06:11:19;11.50;71.60
610;DHT22;292;48.800;9.216;2023-04-02T06:13:48;11.50;71.60
610;DHT22;292;48.800;9.216;2023-04-02T06:16:15;11.50;71.90
610;DHT22;292;48.800;9.216;2023-04-02T06:18:42;11.50;72.10
610;DHT22;292;48.800;9.216;2023-04-02T06:21:13;11.50;72.20
610;DHT22;292;48.800;9.216;2023-04-02T06:23:46;11.50;72.20
610;DHT22;292;48.800;9.216;2023-04-02T06:26:23;11.50;72.50
610;DHT22;292;48.800;9.216;2023-04-02T06:28:54;11.50;72.50
610;DHT22;292;48.800;9.216;2023-04-02T06:31:27;11.50;72.50
610;DHT22;292;48.800;9.216;2023-04-02T06:33:56;11.50;72.50
610;DHT22;292;48.800;9.216;2023-04-02T06:36:24;11.50;72.60
610;DHT22;292;48.800;9.216;2023-04-02T06:38:57;11.50;72.90
610;DHT22;292;48.800;9.216;2023-04-02T06:41:27;11.50;73.10
610;DHT22;292;48.800;9.216;2023-04-02T06:43:56;11.50;73.20
610;DHT22;292;48.800;9.216;2023-04-02T06:46:30;11.50;73.20
610;DHT22;292;48.800;9.216;2023-04-02T06:49:04;11.50;73.40
610;DHT22;292;48.800;9.216;2023-04-02T06:51:35;11.50;73.50
610;DHT22;292;48.800;9.216;2023-04-02T06:54:04;11.50;73.50
610;DHT22;292;48.800;9.216;2023-04-02T06:56:40;11.50;73.70
610;DHT22;292;48.800;9.216;2023-04-02T06:59:08;11.50;73.70
610;DHT22;292;48.800;9.216;2023-04-02T07:01:40;11.60;73.70
610;DHT22;292;48.800;9.216;2023-04-02T07:04:09;11.60;73.50
610;DHT22;292;48.800;9.216;2023-04-02T07:06:37;11.60;73.50
610;DHT22;292;48.800;9.216;2023-04-02T07:09:05;11.60;73.50
610;DHT22;292;48.800;9.216;2023-04-02T07:11:33;11.60;73.50
610;DHT22;292;48.800;9.216;2023-04-02T07:14:00;11.60;73.50
610;DHT22;292;48.800;9.216;2023-04-02T07:16:29;11.60;73.70
610;DHT22;292;48.800;9.216;2023-04-02T07:18:57;11.60;73.70
610;DHT22;292;48.800;9.216;2023-04-02T07:21:24;11.60;73.50
610;DHT22;292;48.800;9.216;2023-04-02T07:23:52;11.60;73.70
610;DHT22;292;48.800;9.216;2023-04-02T07:26:24;11.60;73.80
610;DHT22;292;48.800;9.216;2023-04-02T07:28:51;11.70;73.50
610;DHT22;292;48.800;9.216;2023-04-02T07:31:20;11.70;73.70
610;DHT22;292;48.800;9.216;2023-04-02T07:33:49;11.70;73.50
610;DHT22;292;48.800;9.216;2023-04-02T07:36:17;11.70;73.50
610;DHT22;292;48.800;9.216;2023-04-02T07:38:45;11.60;73.70
610;DHT22;292;48.800;9.216;2023-04-02T07:41:12;11.70;73.70
610;DHT22;292;48.800;9.216;2023-04-02T07:43:41;11.70;73.80
610;DHT22;292;48.800;9.216;2023-04-02T07:46:09;11.70;73.70
610;DHT22;292;48.800;9.216;2023-04-02T07:48:38;11.70;73.50
610;DHT22;292;48.800;9.216;2023-04-02T07:51:14;11.80;73.20
610;DHT22;292;48.800;9.216;2023-04-02T07:53:41;11.70;73.40
610;DHT22;292;48.800;9.216;2023-04-02T07:56:13;11.70;73.20
610;DHT22;292;48.800;9.216;2023-04-02T07:58:44;11.70;73.50
610;DHT22;292;48.800;9.216;2023-04-02T08:01:17;11.80;73.50
610;DHT22;292;48.800;9.216;2023-04-02T08:03:44;11.80;73.40
610;DHT22;292;48.800;9.216;2023-04-02T08:06:11;11.80;73.40
610;DHT22;292;48.800;9.216;2023-04-02T08:08:38;11.80;73.40
610;DHT22;292;48.800;9.216;2023-04-02T08:11:05;11.80;73.40
610;DHT22;292;48.800;9.216;2023-04-02T08:13:32;11.80;73.20
610;DHT22;292;48.800;9.216;2023-04-02T08:16:01;11.80;73.20
610;DHT22;292;48.800;9.216;2023-04-02T08:18:29;11.80;73.40
610;DHT22;292;48.800;9.216;2023-04-02T08:20:56;11.90;73.40
610;DHT22;292;48.800;9.216;2023-04-02T08:23:24;11.90;73.40
610;DHT22;292;48.800;9.216;2023-04-02T08:25:53;12.00;73.20
610;DHT22;292;48.800;9.216;2023-04-02T08:28:20;12.00;73.10
610;DHT22;292;48.800;9.216;2023-04-02T08:30:48;12.00;73.10
610;DHT22;292;48.800;9.216;2023-04-02T08:33:17;12.00;73.10
610;DHT22;292;48.800;9.216;2023-04-02T08:35:45;12.00;72.90
610;DHT22;292;48.800;9.216;2023-04-02T08:38:13;12.10;72.80
610;DHT22;292;48.800;9.216;2023-04-02T08:40:43;12.10;72.60
610;DHT22;292;48.800;9.216;2023-04-02T08:43:31;12.10;72.60
610;DHT22;292;48.800;9.216;2023-04-02T08:46:07;12.10;72.50
610;DHT22;292;48.800;9.216;2023-04-02T08:48:39;12.20;72.20
610;DHT22;292;48.800;9.216;2023-04-02T08:51:18;12.20;72.20
610;DHT22;292;48.800;9.216;2023-04-02T08:53:47;12.20;72.20
610;DHT22;292;48.800;9.216;2023-04-02T08:56:18;12.30;72.20
610;DHT22;292;48.800;9.216;2023-04-02T08:58:48;12.30;72.20
610;DHT22;292;48.800;9.216;2023-04-02T09:01:23;12.30;71.90
610;DHT22;292;48.800;9.216;2023-04-02T09:03:56;12.40;71.60
610;DHT22;292;48.800;9.216;2023-04-02T09:06:24;12.40;71.30
610;DHT22;292;48.800;9.216;2023-04-02T09:08:55;12.30;71.30
610;DHT22;292;48.800;9.216;2023-04-02T09:11:24;12.30;71.30
610;DHT22;292;48.800;9.216;2023-04-02T09:13:55;12.40;71.30
610;DHT22;292;48.800;9.216;2023-04-02T09:16:39;12.40;71.30
610;DHT22;292;48.800;9.216;2023-04-02T09:19:21;12.40;71.30
610;DHT22;292;48.800;9.216;2023-04-02T09:21:58;12.40;71.30
610;DHT22;292;48.800;9.216;2023-04-02T09:24:26;12.40;71.50
610;DHT22;292;48.800;9.216;2023-04-02T09:26:53;12.50;71.30
610;DHT22;292;48.800;9.216;2023-04-02T09:29:42;12.50;71.20
610;DHT22;292;48.800;9.216;2023-04-02T09:32:32;12.50;71.10
610;DHT22;292;48.800;9.216;2023-04-02T09:35:20;12.50;71.10
610;DHT22;292;48.800;9.216;2023-04-02T09:38:15;12.60;71.10
610;DHT22;292;48.800;9.216;2023-04-02T09:40:45;12.60;71.10
610;DHT22;292;48.800;9.216;2023-04-02T09:43:16;12.70;71.10
610;DHT22;292;48.800;9.216;2023-04-02T09:45:54;12.70;70.90
610;DHT22;292;48.800;9.216;2023-04-02T09:48:25;12.80;70.80
610;DHT22;292;48.800;9.216;2023-04-02T09:51:12;12.80;70.30
610;DHT22;292;48.800;9.216;2023-04-02T09:53:40;12.90;70.00
610;DHT22;292;48.800;9.216;2023-04-02T09:56:15;12.90;69.60
610;DHT22;292;48.800;9.216;2023-04-02T09:58:43;12.90;69.60
610;DHT22;292;48.800;9.216;2023-04-02T10:01:26;12.90;69.50
610;DHT22;292;48.800;9.216;2023-04-02T10:03:53;12.90;69.50
610;DHT22;292;48.800;9.216;2023-04-02T10:06:22;13.00;69.50
610;DHT22;292;48.800;9.216;2023-04-02T10:08:49;13.00;69.50
610;DHT22;292;48.800;9.216;2023-04-02T10:11:20;13.00;69.50
610;DHT22;292;48.800;9.216;2023-04-02T10:13:52;13.00;69.50
610;DHT22;292;48.800;9.216;2023-04-02T10:16:24;13.10;69.60
610;DHT22;292;48.800;9.216;2023-04-02T10:18:55;13.10;69.60
610;DHT22;292;48.800;9.216;2023-04-02T10:21:26;13.20;69.60
610;DHT22;292;48.800;9.216;2023-04-02T10:23:54;13.20;69.60
610;DHT22;292;48.800;9.216;2023-04-02T10:26:43;13.20;69.60
610;DHT22;292;48.800;9.216;2023-04-02T10:29:26;13.20;69.60
610;DHT22;292;48.800;9.216;2023-04-02T10:31:59;13.30;69.80
610;DHT22;292;48.800;9.216;2023-04-02T10:34:37;13.30;69.60
610;DHT22;292;48.800;9.216;2023-04-02T10:37:23;13.30;69.50
610;DHT22;292;48.800;9.216;2023-04-02T10:39:58;13.40;69.50
610;DHT22;292;48.800;9.216;2023-04-02T10:42:36;13.40;69.30
610;DHT22;292;48.800;9.216;2023-04-02T10:45:15;13.40;69.30
610;DHT22;292;48.800;9.216;2023-04-02T10:47:49;13.50;69.20
610;DHT22;292;48.800;9.216;2023-04-02T10:50:25;13.50;69.00
610;DHT22;292;48.800;9.216;2023-04-02T10:53:05;13.50;68.60
610;DHT22;292;48.800;9.216;2023-04-02T10:55:39;13.60;68.30
610;DHT22;292;48.800;9.216;2023-04-02T10:58:19;13.60;67.90
610;DHT22;292;48.800;9.216;2023-04-02T11:00:50;13.70;67.70
610;DHT22;292;48.800;9.216;2023-04-02T11:03:30;13.60;67.60
610;DHT22;292;48.800;9.216;2023-04-02T11:06:02;13.70;67.30
610;DHT22;292;48.800;9.216;2023-04-02T11:08:39;13.70;67.60
610;DHT22;292;48.800;9.216;2023-04-02T11:11:11;13.70;67.20
610;DHT22;292;48.800;9.216;2023-04-02T11:13:47;13.70;66.60
610;DHT22;292;48.800;9.216;2023-04-02T11:16:15;13.70;66.30
610;DHT22;292;48.800;9.216;2023-04-02T11:19:18;13.70;66.00
610;DHT22;292;48.800;9.216;2023-04-02T11:21:49;13.60;65.90
610;DHT22;292;48.800;9.216;2023-04-02T11:24:30;13.60;65.90
610;DHT22;292;48.800;9.216;2023-04-02T11:27:06;13.60;66.00
610;DHT22;292;48.800;9.216;2023-04-02T11:29:40;13.70;65.90
610;DHT22;292;48.800;9.216;2023-04-02T11:37:44;13.70;65.90
610;DHT22;292;48.800;9.216;2023-04-02T11:43:54;13.70;65.90
610;DHT22;292;48.800;9.216;2023-04-02T11:46:49;13.70;65.60
610;DHT22;292;48.800;9.216;2023-04-02T11:49:59;13.70;65.60
610;DHT22;292;48.800;9.216;2023-04-02T11:52:33;13.80;65.30
610;DHT22;292;48.800;9.216;2023-04-02T11:55:28;13.80;65.00
610;DHT22;292;48.800;9.216;2023-04-02T11:58:33;13.80;65.30
610;DHT22;292;48.800;9.216;2023-04-02T12:01:26;13.80;65.40
610;DHT22;292;48.800;9.216;2023-04-02T12:04:20;13.80;65.40
610;DHT22;292;48.800;9.216;2023-04-02T12:06:57;13.90;65.30
610;DHT22;292;48.800;9.216;2023-04-02T12:09:34;13.90;65.10
610;DHT22;292;48.800;9.216;2023-04-02T12:12:15;13.90;65.10
610;DHT22;292;48.800;9.216;2023-04-02T12:14:44;13.90;65.10
610;DHT22;292;48.800;9.216;2023-04-02T12:17:27;14.00;65.00
610;DHT22;292;48.800;9.216;2023-04-02T12:19:56;14.00;64.90
610;DHT22;292;48.800;9.216;2023-04-02T12:22:26;14.00;64.60
610;DHT22;292;48.800;9.216;2023-04-02T12:24:57;14.10;64.30
610;DHT22;292;48.800;9.216;2023-04-02T12:27:27;14.00;64.10
610;DHT22;292;48.800;9.216;2023-04-02T12:29:54;14.10;64.10
610;DHT22;292;48.800;9.216;2023-04-02T12:32:28;14.10;64.00
610;DHT22;292;48.800;9.216;2023-04-02T12:34:57;14.10;63.70
610;DHT22;292;48.800;9.216;2023-04-02T12:37:28;14.10;63.70
610;DHT22;292;48.800;9.216;2023-04-02T12:39:56;14.10;63.60
610;DHT22;292;48.800;9.216;2023-04-02T12:42:30;14.10;63.70
610;DHT22;292;48.800;9.216;2023-04-02T12:44:58;14.10;63.60
610;DHT22;292;48.800;9.216;2023-04-02T12:47:27;14.10;63.30
610;DHT22;292;48.800;9.216;2023-04-02T12:49:56;14.10;63.30
610;DHT22;292;48.800;9.216;2023-04-02T12:52:26;14.10;63.30
610;DHT22;292;48.800;9.216;2023-04-02T12:54:55;14.10;63.00
610;DHT22;292;48.800;9.216;2023-04-02T12:57:37;14.10;63.00
610;DHT22;292;48.800;9.216;2023-04-02T13:00:35;14.10;63.10
610;DHT22;292;48.800;9.216;2023-04-02T13:03:18;14.20;64.00
610;DHT22;292;48.800;9.216;2023-04-02T13:05:49;14.20;64.40
610;DHT22;292;48.800;9.216;2023-04-02T13:08:19;14.20;64.90
610;DHT22;292;48.800;9.216;2023-04-02T13:10:53;14.20;65.30
610;DHT22;292;48.800;9.216;2023-04-02T13:13:29;14.20;65.60
610;DHT22;292;48.800;9.216;2023-04-02T13:16:20;14.20;65.90
610;DHT22;292;48.800;9.216;2023-04-02T13:18:50;14.20;66.20
610;DHT22;292;48.800;9.216;2023-04-02T13:21:23;14.20;66.20
610;DHT22;292;48.800;9.216;2023-04-02T13:23:52;14.30;66.40
610;DHT22;292;48.800;9.216;2023-04-02T13:26:20;14.30;66.40
610;DHT22;292;48.800;9.216;2023-04-02T13:28:59;14.30;66.40
610;DHT22;292;48.800;9.216;2023-04-02T13:31:26;14.30;66.40
610;DHT22;292;48.800;9.216;2023-04-02T13:33:54;14.30;66.40
610;DHT22;292;48.800;9.216;2023-04-02T13:36:22;14.20;66.70
610;DHT22;292;48.800;9.216;2023-04-02T13:38:49;14.20;67.00
610;DHT22;292;48.800;9.216;2023-04-02T13:41:19;14.10;67.50
610;DHT22;292;48.800;9.216;2023-04-02T13:43:48;14.00;67.90
610;DHT22;292;48.800;9.216;2023-04-02T13:46:19;13.90;68.60
610;DHT22;292;48.800;9.216;2023-04-02T13:48:47;13.80;69.00
610;DHT22;292;48.800;9.216;2023-04-02T13:51:17;13.70;69.30
610;DHT22;292;48.800;9.216;2023-04-02T13:53:46;13.70;69.80
610;DHT22;292;48.800;9.216;2023-04-02T13:56:14;13.60;70.00
610;DHT22;292;48.800;9.216;2023-04-02T13:58:41;13.60;70.20
610;DHT22;292;48.800;9.216;2023-04-02T14:01:08;13.60;70.60
610;DHT22;292;48.800;9.216;2023-04-02T14:03:36;13.50;70.90
610;DHT22;292;48.800;9.216;2023-04-02T14:06:06;13.40;71.30
610;DHT22;292;48.800;9.216;2023-04-02T14:08:48;13.30;71.60
610;DHT22;292;48.800;9.216;2023-04-02T14:11:31;13.20;72.20
610;DHT22;292;48.800;9.216;2023-04-02T14:17:13;13.20;73.10
610;DHT22;292;48.800;9.216;2023-04-02T14:19:56;13.10;73.20
610;DHT22;292;48.800;9.216;2023-04-02T14:22:33;13.10;73.50
610;DHT22;292;48.800;9.216;2023-04-02T14:25:15;13.00;73.90
610;DHT22;292;48.800;9.216;2023-04-02T14:27:50;13.00;73.90
610;DHT22;292;48.800;9.216;2023-04-02T14:30:24;13.00;73.90
610;DHT22;292;48.800;9.216;2023-04-02T14:32:57;13.00;73.90
610;DHT22;292;48.800;9.216;2023-04-02T14:35:34;13.00;73.90
610;DHT22;292;48.800;9.216;2023-04-02T14:38:08;12.90;73.90
610;DHT22;292;48.800;9.216;2023-04-02T14:40:44;12.90;73.80
610;DHT22;292;48.800;9.216;2023-04-02T14:43:18;12.90;73.80
610;DHT22;292;48.800;9.216;2023-04-02T14:45:57;12.90;73.80
610;DHT22;292;48.800;9.216;2023-04-02T14:48:39;12.90;73.80
610;DHT22;292;48.800;9.216;2023-04-02T14:51:16;12.80;73.80
610;DHT22;292;48.800;9.216;2023-04-02T14:53:57;12.80;73.90
610;DHT22;292;48.800;9.216;2023-04-02T14:56:28;12.80;74.10
610;DHT22;292;48.800;9.216;2023-04-02T14:59:18;12.70;74.20
610;DHT22;292;48.800;9.216;2023-04-02T15:01:49;12.70;74.50
610;DHT22;292;48.800;9.216;2023-04-02T15:04:21;12.70;74.70
610;DHT22;292;48.800;9.216;2023-04-02T15:06:56;12.70;74.80
610;DHT22;292;48.800;9.216;2023-04-02T15:09:28;12.70;74.80
610;DHT22;292;48.800;9.216;2023-04-02T15:12:02;12.60;75.00
610;DHT22;292;48.800;9.216;2023-04-02T15:14:36;12.70;74.80
610;DHT22;292;48.800;9.216;2023-04-02T15:17:09;12.60;74.80
610;DHT22;292;48.800;9.216;2023-04-02T15:19:37;12.60;74.80
610;DHT22;292;48.800;9.216;2023-04-02T15:22:24;12.60;75.10
610;DHT22;292;48.800;9.216;2023-04-02T15:25:01;12.50;75.20
610;DHT22;292;48.800;9.216;2023-04-02T15:27:52;12.50;75.40
610;DHT22;292;48.800;9.216;2023-04-02T15:30:23;12.50;75.80
610;DHT22;292;48.800;9.216;2023-04-02T15:32:52;12.50;75.80
610;DHT22;292;48.800;9.216;2023-04-02T15:35:29;12.50;75.80
610;DHT22;292;48.800;9.216;2023-04-02T15:38:05;12.50;75.70
610;DHT22;292;48.800;9.216;2023-04-02T15:40:45;12.40;75.50
610;DHT22;292;48.800;9.216;2023-04-02T15:43:22;12.40;75.70
610;DHT22;292;48.800;9.216;2023-04-02T15:46:17;12.40;75.80
610;DHT22;292;48.800;9.216;2023-04-02T15:49:05;12.40;76.00
610;DHT22;292;48.800;9.216;2023-04-02T15:51:45;12.30;76.00
610;DHT22;292;48.800;9.216;2023-04-02T15:54:27;12.30;76.00
610;DHT22;292;48.800;9.216;2023-04-02T15:57:07;12.30;75.80
610;DHT22;292;48.800;9.216;2023-04-02T15:59:58;12.20;75.70
610;DHT22;292;48.800;9.216;2023-04-02T16:02:45;12.20;75.50
610;DHT22;292;48.800;9.216;2023-04-02T16:05:18;12.10;75.10
610;DHT22;292;48.800;9.216;2023-04-02T16:08:08;12.00;75.10
610;DHT22;292;48.800;9.216;2023-04-02T16:10:38;12.00;75.20
610;DHT22;292;48.800;9.216;2023-04-02T16:13:14;11.90;75.20
610;DHT22;292;48.800;9.216;2023-04-02T16:15:50;11.90;75.50
610;DHT22;292;48.800;9.216;2023-04-02T16:18:28;11.90;75.70
610;DHT22;292;48.800;9.216;2023-04-02T16:21:02;11.80;75.70
610;DHT22;292;48.800;9.216;2023-04-02T16:23:35;11.80;75.70
610;DHT22;292;48.800;9.216;2023-04-02T16:26:11;11.70;75.70
610;DHT22;292;48.800;9.216;2023-04-02T16:28:49;11.70;75.50
610;DHT22;292;48.800;9.216;2023-04-02T16:31:27;11.60;75.40
610;DHT22;292;48.800;9.216;2023-04-02T16:34:01;11.60;75.20
610;DHT22;292;48.800;9.216;2023-04-02T16:36:38;11.60;75.10
610;DHT22;292;48.800;9.216;2023-04-02T16:39:18;11.60;75.00
610;DHT22;292;48.800;9.216;2023-04-02T16:41:59;11.50;74.50
610;DHT22;292;48.800;9.216;2023-04-02T16:44:38;11.50;73.90
610;DHT22;292;48.800;9.216;2023-04-02T16:47:28;11.40;73.70
610;DHT22;292;48.800;9.216;2023-04-02T16:50:10;11.40;73.20
610;DHT22;292;48.800;9.216;2023-04-02T16:52:44;11.40;72.90
610;DHT22;292;48.800;9.216;2023-04-02T16:55:28;11.30;72.90
610;DHT22;292;48.800;9.216;2023-04-02T16:58:11;11.30;72.90
610;DHT22;292;48.800;9.216;2023-04-02T17:00:44;11.30;72.90
610;DHT22;292;48.800;9.216;2023-04-02T17:03:37;11.30;72.90
610;DHT22;292;48.800;9.216;2023-04-02T17:06:08;11.20;72.60
610;DHT22;292;48.800;9.216;2023-04-02T17:08:41;11.20;72.60
610;DHT22;292;48.800;9.216;2023-04-02T17:11:19;11.20;72.40
610;DHT22;292;48.800;9.216;2023-04-02T17:13:51;11.20;72.20
610;DHT22;292;48.800;9.216;2023-04-02T17:16:22;11.10;72.10
610;DHT22;292;48.800;9.216;2023-04-02T17:18:54;11.10;71.90
610;DHT22;292;48.800;9.216;2023-04-02T17:21:24;11.10;71.60
610;DHT22;292;48.800;9.216;2023-04-02T17:23:54;11.00;71.30
610;DHT22;292;48.800;9.216;2023-04-02T17:26:24;11.00;71.20
610;DHT22;292;48.800;9.216;2023-04-02T17:28:54;10.90;71.10
610;DHT22;292;48.800;9.216;2023-04-02T17:31:24;10.90;70.80
610;DHT22;292;48.800;9.216;2023-04-02T17:33:54;10.80;70.60